createdAt,value
2022-09-14T00:01:46.980Z,3.42
2022-09-14T00:04:18.104Z,3.85
2022-09-14T00:06:48.192Z,3.40
2022-09-14T00:09:18.723Z,3.90
2022-09-14T00:11:48.038Z,3.75
2022-09-14T00:14:17.320Z,4.03
2022-09-14T00:16:48.474Z,4.15
2022-09-14T00:19:20.559Z,3.50
2022-09-14T00:21:53.051Z,4.15
2022-09-14T00:24:23.068Z,3.78
2022-09-14T00:26:52.069Z,4.07
2022-09-14T00:29:21.223Z,3.97
2022-09-14T00:31:51.787Z,4.05
2022-09-14T00:34:21.617Z,4.07
2022-09-14T00:36:52.721Z,4.10
2022-09-14T00:39:24.912Z,4.88
2022-09-14T00:41:54.422Z,4.63
2022-09-14T00:45:00.733Z,4.57
2022-09-14T00:47:33.120Z,4.35
2022-09-14T00:50:05.603Z,3.72
2022-09-14T00:52:38.447Z,4.43
2022-09-14T00:55:10.194Z,4.57
2022-09-14T00:57:42.909Z,4.50
2022-09-14T01:00:14.892Z,4.30
2022-09-14T01:02:45.536Z,3.88
2022-09-14T01:05:15.593Z,4.20
2022-09-14T01:08:02.075Z,4.00
2022-09-14T01:10:44.770Z,4.30
2022-09-14T01:13:26.751Z,3.83
2022-09-14T01:16:04.270Z,4.38
2022-09-14T01:18:39.247Z,4.13
2022-09-14T01:21:11.953Z,3.97
2022-09-14T01:23:48.795Z,4.43
2022-09-14T01:26:55.355Z,4.15
2022-09-14T01:29:32.077Z,3.85
2022-09-14T01:32:07.789Z,4.38
2022-09-14T01:34:45.157Z,4.07
2022-09-14T01:37:19.809Z,4.07
2022-09-14T01:39:53.242Z,3.90
2022-09-14T01:42:25.663Z,3.05
2022-09-14T01:45:00.235Z,3.40
2022-09-14T01:47:36.027Z,3.30
2022-09-14T01:50:09.744Z,4.07
2022-09-14T01:52:44.378Z,4.25
2022-09-14T01:55:19.708Z,3.97
2022-09-14T01:57:53.097Z,3.60
2022-09-14T02:00:24.205Z,3.67
2022-09-14T02:02:56.328Z,3.53
2022-09-14T02:05:32.792Z,3.95
2022-09-14T02:08:02.220Z,3.92
2022-09-14T02:10:31.418Z,3.45
2022-09-14T02:13:01.043Z,3.58
2022-09-14T02:15:31.280Z,4.63
2022-09-14T02:18:00.000Z,3.30
2022-09-14T02:20:32.585Z,3.05
2022-09-14T02:23:01.605Z,3.45
2022-09-14T02:25:32.257Z,3.40
2022-09-14T02:28:00.923Z,3.40
2022-09-14T02:30:34.846Z,3.22
2022-09-14T02:33:16.578Z,3.00
2022-09-14T02:35:50.172Z,3.10
2022-09-14T02:38:31.778Z,3.42
2022-09-14T02:41:11.131Z,3.33
2022-09-14T02:43:47.043Z,3.28
2022-09-14T02:46:21.949Z,3.33
2022-09-14T02:48:59.069Z,3.10
2022-09-14T02:51:33.233Z,2.85
2022-09-14T02:54:06.725Z,2.92
2022-09-14T02:56:37.613Z,4.03
2022-09-14T02:59:06.530Z,2.72
2022-09-14T03:01:36.771Z,3.15
2022-09-14T03:04:05.889Z,3.38
2022-09-14T03:06:34.666Z,3.03
2022-09-14T03:09:03.919Z,3.22
2022-09-14T03:11:32.825Z,3.40
2022-09-14T03:14:01.644Z,3.45
2022-09-14T03:16:30.516Z,3.58
2022-09-14T03:19:00.730Z,3.08
2022-09-14T03:21:29.493Z,2.83
2022-09-14T03:23:58.178Z,3.03
2022-09-14T03:26:29.177Z,3.15
2022-09-14T03:28:59.472Z,3.55
2022-09-14T03:31:28.316Z,2.90
2022-09-14T03:33:58.764Z,3.33
2022-09-14T03:36:31.473Z,3.25
2022-09-14T03:39:03.001Z,2.53
2022-09-14T03:41:31.687Z,3.13
2022-09-14T03:44:00.460Z,2.75
2022-09-14T03:46:29.323Z,2.58
2022-09-14T03:48:58.154Z,2.90
2022-09-14T03:51:28.578Z,2.55
2022-09-14T03:53:57.354Z,3.13
2022-09-14T03:56:26.200Z,3.20
2022-09-14T03:58:55.148Z,3.45
2022-09-14T04:01:24.792Z,4.10
2022-09-14T04:03:53.942Z,3.15
2022-09-14T04:06:22.774Z,2.80
2022-09-14T04:08:52.922Z,2.63
2022-09-14T04:11:24.841Z,2.83
2022-09-14T04:13:54.360Z,2.60
2022-09-14T04:16:23.674Z,2.78
2022-09-14T04:18:53.265Z,2.90
2022-09-14T04:21:23.368Z,2.40
2022-09-14T04:24:15.114Z,2.72
2022-09-14T04:26:44.887Z,2.65
2022-09-14T04:29:14.823Z,2.50
2022-09-14T04:31:44.789Z,2.75
2022-09-14T04:34:14.842Z,3.38
2022-09-14T04:36:43.939Z,3.03
2022-09-14T04:39:15.329Z,3.50
2022-09-14T04:41:44.607Z,4.75
2022-09-14T04:44:13.779Z,3.83
2022-09-14T04:46:46.646Z,2.72
2022-09-14T04:49:16.720Z,2.88
2022-09-14T04:51:46.108Z,3.35
2022-09-14T04:54:18.256Z,3.00
2022-09-14T04:56:47.556Z,2.85
2022-09-14T04:59:17.080Z,2.65
2022-09-14T05:01:48.894Z,3.47
2022-09-14T05:04:17.924Z,2.80
2022-09-14T05:06:47.211Z,3.53
2022-09-14T05:09:19.172Z,2.83
2022-09-14T05:11:49.705Z,2.60
2022-09-14T05:14:18.558Z,2.83
2022-09-14T05:16:48.056Z,2.92
2022-09-14T05:19:18.713Z,2.10
2022-09-14T05:21:48.512Z,2.83
2022-09-14T05:24:20.011Z,2.35
2022-09-14T05:26:49.139Z,2.85
2022-09-14T05:29:19.964Z,2.50
2022-09-14T05:31:49.004Z,2.22
2022-09-14T05:34:18.293Z,2.17
2022-09-14T05:36:48.137Z,2.28
2022-09-14T05:39:23.037Z,2.38
2022-09-14T05:41:53.096Z,2.20
2022-09-14T05:44:21.883Z,2.70
2022-09-14T05:46:50.642Z,2.50
2022-09-14T05:49:19.516Z,2.45
2022-09-14T05:51:48.412Z,2.00
2022-09-14T05:54:18.596Z,2.38
2022-09-14T05:56:48.439Z,2.33
2022-09-14T05:59:17.185Z,2.53
2022-09-14T06:01:47.577Z,2.33
2022-09-14T06:04:16.468Z,2.35
2022-09-14T06:07:01.495Z,2.45
2022-09-14T06:09:36.970Z,1.90
2022-09-14T06:12:05.969Z,2.33
2022-09-14T06:14:34.888Z,2.30
2022-09-14T06:17:05.779Z,2.00
2022-09-14T06:19:34.656Z,2.30
2022-09-14T06:22:03.437Z,2.55
2022-09-14T06:24:32.546Z,2.33
2022-09-14T06:27:02.867Z,2.30
2022-09-14T06:29:32.435Z,2.10
2022-09-14T06:32:01.325Z,2.67
2022-09-14T06:34:30.513Z,2.50
2022-09-14T06:36:59.643Z,2.28
2022-09-14T06:39:28.714Z,2.20
2022-09-14T06:41:57.737Z,2.20
2022-09-14T06:44:31.716Z,3.38
2022-09-14T06:47:00.414Z,2.53
2022-09-14T06:49:29.504Z,2.40
2022-09-14T06:51:58.278Z,2.35
2022-09-14T06:54:27.172Z,3.70
2022-09-14T06:56:56.570Z,2.50
2022-09-14T06:59:26.076Z,2.58
2022-09-14T07:01:56.920Z,2.70
2022-09-14T07:04:26.117Z,2.53
2022-09-14T07:06:55.131Z,3.08
2022-09-14T07:09:24.116Z,2.35
2022-09-14T07:11:54.650Z,2.67
2022-09-14T07:14:23.871Z,2.42
2022-09-14T07:16:52.693Z,3.10
2022-09-14T07:19:23.140Z,2.33
2022-09-14T07:21:53.955Z,2.47
2022-09-14T07:24:23.189Z,5.13
2022-09-14T07:26:52.291Z,2.63
2022-09-14T07:29:22.221Z,2.50
2022-09-14T07:31:53.997Z,2.35
2022-09-14T07:34:25.571Z,3.35
2022-09-14T07:36:54.693Z,9.52
2022-09-14T07:39:23.344Z,4.93
2022-09-14T07:41:51.992Z,2.85
2022-09-14T07:44:20.774Z,2.42
2022-09-14T07:46:49.786Z,2.20
2022-09-14T07:49:19.293Z,2.47
2022-09-14T07:51:50.275Z,2.35
2022-09-14T07:54:19.877Z,2.00
2022-09-14T07:56:49.399Z,2.35
2022-09-14T07:59:35.759Z,2.03
2022-09-14T08:02:07.819Z,2.70
2022-09-14T08:04:37.995Z,1.92
2022-09-14T08:07:09.279Z,2.05
2022-09-14T08:09:39.654Z,2.10
2022-09-14T08:12:08.574Z,1.95
2022-09-14T08:14:37.220Z,1.83
2022-09-14T08:17:06.562Z,20.00
2022-09-14T08:19:35.663Z,2.88
2022-09-14T08:22:05.245Z,1.90
2022-09-14T08:24:35.677Z,2.03
2022-09-14T08:27:04.737Z,2.67
2022-09-14T08:29:33.838Z,2.15
2022-09-14T08:32:03.086Z,1.90
2022-09-14T08:34:31.924Z,1.90
2022-09-14T08:37:00.557Z,1.70
2022-09-14T08:39:29.286Z,2.03
2022-09-14T08:42:01.949Z,1.83
2022-09-14T08:44:38.835Z,1.70
2022-09-14T08:47:13.579Z,1.85
2022-09-14T08:49:48.912Z,1.80
2022-09-14T08:52:25.998Z,1.58
2022-09-14T08:54:57.558Z,1.83
2022-09-14T08:57:39.242Z,1.83
2022-09-14T09:00:12.242Z,1.88
2022-09-14T09:03:21.435Z,1.90
2022-09-14T09:05:54.670Z,1.73
2022-09-14T09:08:32.328Z,1.63
2022-09-14T09:11:05.641Z,1.98
2022-09-14T09:13:39.407Z,1.95
2022-09-14T09:16:11.922Z,1.88
2022-09-14T09:18:46.995Z,1.80
2022-09-14T09:21:18.455Z,1.90
2022-09-14T09:23:47.602Z,1.77
2022-09-14T09:26:24.029Z,2.38
2022-09-14T09:28:58.020Z,1.55
2022-09-14T09:31:33.612Z,2.03
2022-09-14T09:34:32.217Z,1.60
2022-09-14T09:37:28.083Z,2.28
2022-09-14T09:39:56.955Z,1.90
2022-09-14T09:42:28.487Z,1.80
2022-09-14T09:45:03.245Z,2.13
2022-09-14T09:47:36.622Z,1.73
2022-09-14T09:50:17.393Z,2.00
2022-09-14T09:52:51.337Z,1.73
2022-09-14T09:55:22.592Z,2.10
2022-09-14T09:57:51.503Z,1.75
2022-09-14T10:00:26.270Z,2.00
2022-09-14T10:02:57.254Z,1.90
2022-09-14T10:05:31.805Z,2.15
2022-09-14T10:08:02.540Z,2.15
2022-09-14T10:10:44.744Z,2.33
2022-09-14T10:13:30.030Z,1.77
2022-09-14T10:16:16.611Z,2.17
2022-09-14T10:18:49.137Z,2.35
2022-09-14T10:21:20.036Z,1.90
2022-09-14T10:24:04.961Z,2.40
2022-09-14T10:26:36.925Z,2.28
2022-09-14T10:29:35.519Z,2.13
2022-09-14T10:32:17.858Z,1.98
2022-09-14T10:34:47.165Z,2.60
2022-09-14T10:37:29.941Z,2.17
2022-09-14T10:40:13.505Z,2.42
2022-09-14T10:42:50.403Z,2.35
2022-09-14T10:45:24.165Z,2.47
2022-09-14T10:48:23.003Z,2.20
2022-09-14T10:50:59.198Z,2.45
2022-09-14T10:53:44.608Z,2.40
2022-09-14T10:56:20.316Z,2.15
2022-09-14T10:59:10.446Z,2.67
2022-09-14T11:02:04.903Z,2.40
2022-09-14T11:04:58.991Z,3.10
2022-09-14T11:10:06.753Z,2.97
2022-09-14T11:12:43.327Z,3.38
2022-09-14T11:15:25.632Z,3.85
2022-09-14T11:18:13.831Z,3.72
2022-09-14T11:20:54.135Z,3.58
2022-09-14T11:23:35.414Z,3.58
2022-09-14T11:26:10.387Z,3.08
2022-09-14T11:28:43.581Z,3.33
2022-09-14T11:31:17.776Z,3.33
2022-09-14T11:33:53.693Z,3.67
2022-09-14T11:36:28.022Z,3.60
2022-09-14T11:39:06.679Z,3.70
2022-09-14T11:41:44.576Z,3.60
2022-09-14T11:44:17.200Z,4.30
2022-09-14T11:46:50.810Z,4.35
2022-09-14T11:49:23.222Z,4.13
2022-09-14T11:51:57.156Z,3.78
2022-09-14T11:54:26.268Z,3.85
2022-09-14T11:56:59.769Z,4.00
2022-09-14T11:59:54.117Z,4.10
2022-09-14T12:02:49.319Z,3.97
2022-09-14T12:05:36.538Z,3.63
2022-09-14T12:08:38.123Z,5.10
2022-09-14T12:11:25.881Z,4.38
2022-09-14T12:14:31.275Z,5.55
2022-09-14T12:20:40.460Z,4.45
2022-09-14T12:23:27.771Z,4.65
2022-09-14T12:26:38.110Z,4.45
2022-09-14T12:29:35.383Z,4.63
2022-09-14T12:32:27.489Z,5.70
2022-09-14T12:35:38.934Z,6.25
2022-09-14T12:38:44.378Z,4.28
2022-09-14T12:42:02.877Z,4.15
2022-09-14T12:44:37.917Z,4.70
2022-09-14T12:47:40.295Z,4.25
2022-09-14T12:50:16.263Z,4.60
2022-09-14T12:52:58.886Z,4.47
2022-09-14T12:55:57.890Z,4.70
2022-09-14T12:58:52.173Z,4.40
2022-09-14T13:01:36.122Z,5.25
2022-09-14T13:04:06.419Z,4.88
2022-09-14T13:06:42.317Z,4.55
2022-09-14T13:09:18.743Z,5.93
2022-09-14T13:11:55.145Z,5.60
2022-09-14T13:14:26.293Z,5.25
2022-09-14T13:16:57.264Z,5.38
2022-09-14T13:19:27.966Z,5.18
2022-09-14T13:21:58.905Z,5.25
2022-09-14T13:24:32.647Z,5.53
2022-09-14T13:27:04.238Z,5.57
2022-09-14T13:29:33.712Z,5.45
2022-09-14T13:32:04.220Z,4.80
2022-09-14T13:34:37.160Z,5.60
2022-09-14T13:37:06.544Z,5.20
2022-09-14T13:39:38.711Z,5.60
2022-09-14T13:42:11.004Z,5.75
2022-09-14T13:44:45.725Z,5.80
2022-09-14T13:47:17.320Z,6.15
2022-09-14T13:49:47.893Z,6.03
2022-09-14T13:53:00.387Z,5.60
2022-09-14T13:55:29.270Z,6.20
2022-09-14T13:58:23.227Z,6.13
2022-09-14T14:00:55.601Z,6.15
2022-09-14T14:03:30.116Z,5.90
2022-09-14T14:05:59.813Z,6.88
2022-09-14T14:08:37.562Z,6.88
2022-09-14T14:11:07.917Z,6.68
2022-09-14T14:13:39.276Z,6.35
2022-09-14T14:16:16.177Z,6.28
2022-09-14T14:18:52.104Z,6.55
2022-09-14T14:21:30.495Z,6.78
2022-09-14T14:24:25.999Z,9.25
2022-09-14T14:26:57.436Z,8.93
2022-09-14T14:29:27.975Z,6.55
2022-09-14T14:31:57.530Z,5.68
2022-09-14T14:34:31.294Z,5.88
2022-09-14T14:37:02.534Z,5.93
2022-09-14T14:39:32.620Z,6.07
2022-09-14T14:42:02.806Z,5.60
2022-09-14T14:44:33.941Z,6.20
2022-09-14T14:47:02.919Z,5.63
2022-09-14T14:49:32.180Z,12.43
2022-09-14T14:52:01.272Z,5.55
2022-09-14T14:54:30.055Z,6.32
2022-09-14T14:56:59.084Z,6.05
2022-09-14T14:59:30.136Z,6.00
2022-09-14T15:02:00.187Z,6.20
2022-09-14T15:04:29.550Z,6.30
2022-09-14T15:06:58.643Z,7.28
2022-09-14T15:09:29.859Z,6.75
2022-09-14T15:11:58.676Z,7.20
2022-09-14T15:14:27.947Z,6.75
2022-09-14T15:17:00.230Z,7.80
2022-09-14T15:19:30.681Z,7.82
2022-09-14T15:22:01.614Z,8.07
2022-09-14T15:24:30.828Z,7.30
2022-09-14T15:27:00.152Z,6.88
2022-09-14T15:29:29.477Z,7.55
2022-09-14T15:31:58.318Z,7.43
2022-09-14T15:34:27.094Z,7.65
2022-09-14T15:36:58.950Z,7.60
2022-09-14T15:39:30.075Z,7.45
2022-09-14T15:41:59.549Z,7.30
2022-09-14T15:44:28.269Z,7.55
2022-09-14T15:46:57.833Z,8.00
2022-09-14T15:49:27.709Z,8.23
2022-09-14T15:51:59.912Z,8.18
2022-09-14T15:54:35.002Z,7.30
2022-09-14T15:57:06.368Z,8.73
2022-09-14T15:59:36.360Z,8.48
2022-09-14T16:02:05.464Z,7.68
2022-09-14T16:04:37.679Z,8.23
2022-09-14T16:07:10.835Z,7.93
2022-09-14T16:09:41.354Z,8.88
2022-09-14T16:12:12.352Z,7.97
2022-09-14T16:14:41.291Z,8.60
2022-09-14T16:17:11.414Z,7.93
2022-09-14T16:19:40.203Z,17.25
2022-09-14T16:22:10.434Z,11.57
2022-09-14T16:24:39.433Z,28.90
2022-09-14T16:27:08.438Z,13.43
2022-09-14T16:29:37.289Z,10.60
2022-09-14T16:32:06.189Z,12.48
2022-09-14T16:34:39.068Z,12.13
2022-09-14T16:37:08.197Z,10.00
2022-09-14T16:39:38.506Z,9.93
2022-09-14T16:42:08.033Z,9.13
2022-09-14T16:44:37.175Z,8.45
2022-09-14T16:47:06.217Z,11.23
2022-09-14T16:49:37.344Z,20.70
2022-09-14T16:52:06.794Z,10.00
2022-09-14T16:54:35.691Z,10.27
2022-09-14T16:57:06.433Z,10.65
2022-09-14T16:59:35.864Z,9.82
2022-09-14T17:02:05.618Z,9.73
2022-09-14T17:04:35.108Z,18.08
2022-09-14T17:07:04.410Z,11.10
2022-09-14T17:09:34.553Z,14.07
2022-09-14T17:12:05.523Z,10.68
2022-09-14T17:14:35.196Z,9.98
2022-09-14T17:17:04.479Z,10.50
2022-09-14T17:19:35.118Z,9.43
2022-09-14T17:22:05.449Z,9.88
2022-09-14T17:24:34.523Z,9.85
2022-09-14T17:27:03.691Z,9.70
2022-09-14T17:29:38.664Z,10.35
2022-09-14T17:32:12.507Z,10.15
2022-09-14T17:34:44.154Z,9.63
2022-09-14T17:37:13.298Z,10.20
2022-09-14T17:39:42.471Z,9.95
2022-09-14T17:42:12.197Z,9.15
2022-09-14T17:44:43.140Z,9.15
2022-09-14T17:47:12.649Z,11.23
2022-09-14T17:49:41.882Z,9.07
2022-09-14T17:52:11.109Z,8.57
2022-09-14T17:54:40.426Z,11.85
2022-09-14T17:57:09.857Z,10.07
2022-09-14T17:59:39.352Z,9.88
2022-09-14T18:02:13.436Z,9.83
2022-09-14T18:04:48.522Z,10.38
2022-09-14T18:07:18.435Z,9.60
2022-09-14T18:09:47.664Z,8.52
2022-09-14T18:12:18.011Z,9.93
2022-09-14T18:14:47.305Z,9.23
2022-09-14T18:17:20.624Z,8.73
2022-09-14T18:19:57.631Z,9.20
2022-09-14T18:22:26.896Z,9.43
2022-09-14T18:24:56.130Z,9.25
2022-09-14T18:27:26.432Z,12.27
2022-09-14T18:29:59.021Z,13.05
2022-09-14T18:32:30.957Z,14.30
2022-09-14T18:35:02.360Z,9.88
2022-09-14T18:37:33.345Z,11.98
2022-09-14T18:40:04.669Z,12.27
2022-09-14T18:42:35.105Z,10.35
2022-09-14T18:45:04.199Z,10.10
2022-09-14T18:47:35.146Z,9.52
2022-09-14T18:50:05.379Z,11.02
2022-09-14T18:52:37.139Z,8.60
2022-09-14T18:55:07.078Z,7.75
2022-09-14T18:57:36.227Z,9.40
2022-09-14T19:00:06.405Z,9.93
2022-09-14T19:02:37.084Z,10.25
2022-09-14T19:05:07.003Z,8.38
2022-09-14T19:07:37.441Z,9.27
2022-09-14T19:10:11.506Z,15.52
2022-09-14T19:12:40.945Z,9.75
2022-09-14T19:15:11.509Z,10.40
2022-09-14T19:17:42.109Z,10.80
2022-09-14T19:20:12.047Z,10.00
2022-09-14T19:22:40.981Z,10.23
2022-09-14T19:25:10.538Z,9.02
2022-09-14T19:27:40.254Z,9.55
2022-09-14T19:30:11.178Z,12.32
2022-09-14T19:32:42.208Z,11.10
2022-09-14T19:35:11.707Z,20.20
2022-09-14T19:37:41.115Z,15.00
2022-09-14T19:40:11.046Z,12.32
2022-09-14T19:42:43.320Z,10.77
2022-09-14T19:45:15.581Z,15.68
2022-09-14T19:47:46.063Z,9.25
2022-09-14T19:50:14.887Z,10.80
2022-09-14T19:52:43.698Z,9.68
2022-09-14T19:55:12.563Z,9.45
2022-09-14T19:57:41.474Z,9.60
2022-09-14T20:00:16.302Z,9.85
2022-09-14T20:02:48.587Z,9.73
2022-09-14T20:05:18.773Z,9.77
2022-09-14T20:07:47.841Z,9.32
2022-09-14T20:10:18.414Z,11.10
2022-09-14T20:12:47.878Z,10.45
2022-09-14T20:15:17.520Z,10.23
2022-09-14T20:17:48.243Z,10.02
2022-09-14T20:20:17.353Z,11.02
2022-09-14T20:22:46.566Z,10.18
2022-09-14T20:25:16.090Z,10.82
2022-09-14T20:27:44.894Z,10.52
2022-09-14T20:30:17.134Z,10.45
2022-09-14T20:32:46.679Z,10.65
2022-09-14T20:35:17.070Z,10.15
2022-09-14T20:37:45.943Z,10.32
2022-09-14T20:40:14.638Z,10.68
2022-09-14T20:42:43.534Z,17.33
2022-09-14T20:45:12.544Z,12.38
2022-09-14T20:47:41.524Z,11.10
2022-09-14T20:50:10.640Z,11.35
2022-09-14T20:52:40.828Z,11.50
2022-09-14T20:55:11.137Z,10.95
2022-09-14T20:57:39.822Z,10.45
2022-09-14T21:00:12.490Z,12.13
2022-09-14T21:02:41.323Z,10.88
2022-09-14T21:05:10.578Z,10.80
2022-09-14T21:07:40.688Z,10.35
2022-09-14T21:10:29.565Z,11.02
2022-09-14T21:13:02.128Z,11.80
2022-09-14T21:15:35.824Z,11.95
2022-09-14T21:18:06.254Z,11.45
2022-09-14T21:20:37.916Z,12.40
2022-09-14T21:23:11.115Z,10.88
2022-09-14T21:25:41.330Z,11.65
2022-09-14T21:28:10.541Z,11.52
2022-09-14T21:30:40.168Z,11.18
2022-09-14T21:33:10.818Z,11.55
2022-09-14T21:35:39.899Z,11.85
2022-09-14T21:38:11.502Z,12.30
2022-09-14T21:40:45.162Z,10.88
2022-09-14T21:43:15.026Z,11.32
2022-09-14T21:45:48.745Z,12.20
2022-09-14T21:48:19.418Z,10.68
2022-09-14T21:50:49.024Z,12.07
2022-09-14T21:53:19.509Z,11.10
2022-09-14T21:55:49.541Z,11.85
2022-09-14T21:58:19.540Z,12.23
2022-09-14T22:00:48.969Z,12.00
2022-09-14T22:03:18.726Z,11.10
2022-09-14T22:05:58.408Z,12.50
2022-09-14T22:08:31.509Z,10.88
2022-09-14T22:11:04.615Z,12.43
2022-09-14T22:13:34.049Z,12.48
2022-09-14T22:16:08.995Z,13.50
2022-09-14T22:18:43.135Z,12.52
2022-09-14T22:21:12.134Z,31.15
2022-09-14T22:23:43.168Z,19.48
2022-09-14T22:26:14.013Z,13.15
2022-09-14T22:28:43.258Z,13.30
2022-09-14T22:31:13.064Z,13.13
2022-09-14T22:33:42.838Z,13.43
2022-09-14T22:36:12.837Z,11.63
2022-09-14T22:38:45.885Z,11.85
2022-09-14T22:41:19.689Z,11.55
2022-09-14T22:43:49.916Z,12.30
2022-09-14T22:46:20.329Z,11.90
2022-09-14T22:48:50.419Z,10.80
2022-09-14T22:51:21.763Z,11.70
2022-09-14T22:53:52.818Z,12.15
2022-09-14T22:56:24.764Z,11.75
2022-09-14T22:58:54.574Z,12.00
2022-09-14T23:01:27.534Z,12.80
2022-09-14T23:03:59.119Z,11.90
2022-09-14T23:06:29.371Z,12.10
2022-09-14T23:09:01.230Z,12.20
2022-09-14T23:11:30.927Z,11.63
2022-09-14T23:14:00.363Z,12.80
2022-09-14T23:16:31.733Z,17.73
2022-09-14T23:19:02.908Z,12.88
2022-09-14T23:21:32.961Z,11.60
2022-09-14T23:24:05.687Z,35.47
2022-09-14T23:26:34.980Z,15.93
2022-09-14T23:29:05.747Z,13.23
2022-09-14T23:31:35.164Z,12.95
2022-09-14T23:34:05.912Z,12.63
2022-09-14T23:36:35.515Z,12.68
2022-09-14T23:39:05.904Z,13.05
2022-09-14T23:41:34.776Z,13.57
2022-09-14T23:44:04.232Z,13.00
2022-09-14T23:46:33.331Z,14.40
2022-09-14T23:49:02.474Z,13.57
2022-09-14T23:51:31.206Z,14.23
2022-09-14T23:53:59.955Z,13.90
2022-09-14T23:56:30.168Z,13.63
2022-09-14T23:58:59.156Z,12.77
